createdAt,value
2023-02-11T00:00:15.683Z,0.00
2023-02-11T00:01:16.561Z,0.00
2023-02-11T00:02:17.495Z,0.00
2023-02-11T00:03:18.404Z,0.00
2023-02-11T00:04:19.269Z,0.00
2023-02-11T00:05:20.142Z,0.00
2023-02-11T00:06:21.035Z,0.00
2023-02-11T00:07:21.904Z,0.00
2023-02-11T00:08:22.797Z,0.00
2023-02-11T00:09:23.676Z,0.00
2023-02-11T00:10:24.559Z,0.00
2023-02-11T00:11:25.445Z,0.00
2023-02-11T00:12:26.331Z,0.00
2023-02-11T00:13:27.222Z,0.00
2023-02-11T00:14:28.090Z,0.00
2023-02-11T00:15:28.964Z,0.00
2023-02-11T00:16:29.922Z,0.00
2023-02-11T00:17:30.743Z,0.00
2023-02-11T00:18:31.650Z,0.00
2023-02-11T00:19:32.545Z,0.00
2023-02-11T00:20:33.432Z,0.00
2023-02-11T00:21:34.307Z,0.00
2023-02-11T00:22:35.177Z,0.00
2023-02-11T00:23:36.068Z,0.00
2023-02-11T00:24:36.952Z,0.00
2023-02-11T00:25:37.858Z,0.00
2023-02-11T00:26:38.735Z,0.00
2023-02-11T00:27:39.594Z,0.00
2023-02-11T00:28:40.492Z,0.00
2023-02-11T00:29:41.392Z,0.00
2023-02-11T00:30:42.370Z,0.00
2023-02-11T00:31:43.450Z,0.00
2023-02-11T00:32:43.837Z,0.00
2023-02-11T00:33:44.723Z,0.00
2023-02-11T00:34:45.614Z,0.00
2023-02-11T00:35:46.526Z,0.00
2023-02-11T00:36:47.388Z,0.00
2023-02-11T00:37:48.256Z,0.00
2023-02-11T00:38:49.162Z,0.00
2023-02-11T00:39:50.033Z,0.00
2023-02-11T00:40:50.927Z,0.00
2023-02-11T00:41:51.806Z,0.00
2023-02-11T00:42:52.719Z,0.00
2023-02-11T00:43:53.598Z,0.00
2023-02-11T00:44:54.469Z,0.00
2023-02-11T00:45:55.397Z,0.00
2023-02-11T00:46:56.248Z,0.00
2023-02-11T00:47:57.110Z,0.00
2023-02-11T00:48:58.131Z,0.00
2023-02-11T00:49:58.956Z,0.00
2023-02-11T00:50:59.840Z,0.00
2023-02-11T00:52:00.756Z,0.00
2023-02-11T00:53:01.600Z,0.00
2023-02-11T00:54:02.492Z,0.00
2023-02-11T00:55:03.375Z,0.00
2023-02-11T00:56:04.284Z,0.00
2023-02-11T00:57:05.147Z,0.00
2023-02-11T00:58:06.029Z,0.00
2023-02-11T00:59:06.913Z,0.00
2023-02-11T01:00:07.793Z,0.00
2023-02-11T01:01:08.701Z,0.00
2023-02-11T01:02:09.555Z,0.00
2023-02-11T01:03:10.484Z,0.00
2023-02-11T01:04:11.363Z,0.00
2023-02-11T01:05:12.300Z,0.00
2023-02-11T01:06:13.165Z,0.00
2023-02-11T01:07:14.078Z,0.00
2023-02-11T01:08:15.000Z,0.00
2023-02-11T01:09:15.869Z,0.00
2023-02-11T01:10:16.762Z,0.00
2023-02-11T01:11:17.651Z,0.00
2023-02-11T01:12:18.525Z,0.00
2023-02-11T01:13:19.444Z,0.00
2023-02-11T01:14:20.333Z,0.00
2023-02-11T01:15:21.234Z,0.00
2023-02-11T01:16:22.196Z,0.00
2023-02-11T01:17:23.088Z,0.00
2023-02-11T01:18:23.976Z,0.00
2023-02-11T01:19:24.889Z,0.00
2023-02-11T01:20:25.781Z,0.00
2023-02-11T01:21:26.689Z,0.00
2023-02-11T01:22:27.643Z,0.00
2023-02-11T01:23:28.494Z,0.00
2023-02-11T01:24:29.404Z,0.00
2023-02-11T01:25:30.306Z,0.00
2023-02-11T01:26:31.196Z,0.00
2023-02-11T01:27:32.100Z,0.00
2023-02-11T01:28:33.117Z,0.00
2023-02-11T01:29:33.550Z,0.00
2023-02-11T01:30:34.415Z,0.00
2023-02-11T01:31:35.495Z,0.00
2023-02-11T01:32:35.896Z,0.00
2023-02-11T01:33:36.784Z,0.00
2023-02-11T01:34:37.697Z,0.00
2023-02-11T01:35:38.588Z,0.00
2023-02-11T01:36:39.484Z,0.00
2023-02-11T01:37:40.373Z,0.00
2023-02-11T01:38:41.472Z,0.00
2023-02-11T01:39:41.840Z,0.00
2023-02-11T01:40:42.748Z,0.00
2023-02-11T01:41:43.616Z,0.00
2023-02-11T01:42:44.492Z,0.00
2023-02-11T01:43:45.372Z,0.00
2023-02-11T01:44:46.272Z,0.00
2023-02-11T01:45:47.188Z,0.00
2023-02-11T01:46:48.138Z,0.00
2023-02-11T01:47:48.995Z,0.00
2023-02-11T01:48:49.888Z,0.00
2023-02-11T01:49:50.763Z,0.00
2023-02-11T01:50:51.636Z,0.00
2023-02-11T01:51:52.515Z,0.00
2023-02-11T01:52:53.440Z,0.00
2023-02-11T01:53:54.308Z,0.00
2023-02-11T01:54:55.186Z,0.00
2023-02-11T01:55:56.082Z,0.00
2023-02-11T01:56:56.950Z,0.00
2023-02-11T01:57:57.857Z,0.00
2023-02-11T01:58:58.728Z,0.00
2023-02-11T01:59:59.676Z,0.00
2023-02-11T02:01:00.513Z,0.00
2023-02-11T02:02:01.475Z,0.00
2023-02-11T02:03:02.379Z,0.00
2023-02-11T02:04:03.327Z,0.00
2023-02-11T02:05:04.183Z,0.00
2023-02-11T02:06:05.059Z,0.00
2023-02-11T02:07:05.941Z,0.00
2023-02-11T02:08:06.853Z,0.00
2023-02-11T02:09:07.727Z,0.00
2023-02-11T02:10:08.626Z,0.00
2023-02-11T02:11:09.504Z,0.00
2023-02-11T02:12:10.387Z,0.00
2023-02-11T02:13:11.271Z,0.00
2023-02-11T02:14:12.143Z,0.00
2023-02-11T02:15:13.111Z,0.00
2023-02-11T02:16:14.031Z,0.00
2023-02-11T02:17:14.906Z,0.00
2023-02-11T02:18:15.854Z,0.00
2023-02-11T02:19:16.716Z,0.00
2023-02-11T02:20:17.623Z,0.00
2023-02-11T02:21:18.493Z,0.00
2023-02-11T02:22:19.368Z,0.00
2023-02-11T02:23:20.293Z,0.00
2023-02-11T02:24:21.163Z,0.00
2023-02-11T02:25:22.091Z,0.00
2023-02-11T02:26:22.946Z,0.00
2023-02-11T02:27:23.818Z,0.00
2023-02-11T02:28:24.802Z,0.00
2023-02-11T02:29:25.644Z,0.00
2023-02-11T02:30:26.564Z,0.00
2023-02-11T02:31:27.485Z,0.00
2023-02-11T02:32:28.388Z,0.00
2023-02-11T02:33:29.238Z,0.00
2023-02-11T02:34:30.129Z,0.00
2023-02-11T02:35:31.049Z,0.00
2023-02-11T02:36:31.936Z,0.00
2023-02-11T02:37:32.825Z,0.00
2023-02-11T02:38:33.716Z,0.00
2023-02-11T02:39:34.576Z,0.00
2023-02-11T02:40:35.467Z,0.00
2023-02-11T02:41:36.351Z,0.00
2023-02-11T02:42:37.245Z,0.00
2023-02-11T02:43:38.122Z,0.00
2023-02-11T02:44:39.006Z,0.00
2023-02-11T02:45:39.906Z,0.00
2023-02-11T02:46:40.858Z,0.00
2023-02-11T02:47:41.728Z,0.00
2023-02-11T02:48:42.582Z,0.00
2023-02-11T02:49:43.481Z,0.00
2023-02-11T02:50:44.372Z,0.00
2023-02-11T02:51:45.272Z,0.00
2023-02-11T02:52:46.144Z,0.00
2023-02-11T02:53:47.041Z,0.00
2023-02-11T02:54:47.939Z,0.00
2023-02-11T02:55:49.115Z,0.00
2023-02-11T02:56:49.595Z,0.00
2023-02-11T02:57:50.475Z,0.00
2023-02-11T02:58:51.046Z,0.00
2023-02-11T02:59:51.918Z,0.00
2023-02-11T03:00:52.854Z,0.00
2023-02-11T03:01:53.696Z,0.00
2023-02-11T03:02:54.581Z,0.00
2023-02-11T03:03:55.496Z,0.00
2023-02-11T03:04:56.026Z,0.00
2023-02-11T03:05:56.969Z,0.00
2023-02-11T03:06:57.838Z,0.00
2023-02-11T03:07:58.719Z,0.00
2023-02-11T03:08:59.614Z,0.00
2023-02-11T03:10:00.515Z,0.00
2023-02-11T03:11:01.086Z,0.00
2023-02-11T03:12:01.969Z,0.00
2023-02-11T03:13:02.857Z,0.00
2023-02-11T03:14:03.749Z,0.00
2023-02-11T03:15:04.616Z,0.00
2023-02-11T03:16:05.537Z,0.00
2023-02-11T03:17:06.139Z,0.00
2023-02-11T03:18:06.990Z,0.00
2023-02-11T03:19:07.866Z,0.00
2023-02-11T03:20:08.778Z,0.00
2023-02-11T03:21:09.662Z,0.00
2023-02-11T03:22:10.565Z,0.00
2023-02-11T03:23:11.428Z,0.00
2023-02-11T03:24:12.343Z,0.00
2023-02-11T03:25:13.194Z,0.00
2023-02-11T03:26:14.085Z,0.00
2023-02-11T03:27:14.972Z,0.00
2023-02-11T03:28:15.881Z,0.00
2023-02-11T03:29:16.739Z,0.00
2023-02-11T03:30:17.634Z,0.00
2023-02-11T03:31:18.657Z,0.00
2023-02-11T03:32:19.154Z,0.00
2023-02-11T03:33:20.011Z,0.00
2023-02-11T03:34:20.907Z,0.00
2023-02-11T03:35:21.777Z,0.00
2023-02-11T03:36:22.668Z,0.00
2023-02-11T03:37:23.565Z,0.00
2023-02-11T03:38:24.424Z,0.00
2023-02-11T03:39:25.327Z,0.00
2023-02-11T03:40:26.191Z,0.00
2023-02-11T03:41:27.078Z,0.00
2023-02-11T03:42:27.964Z,0.00
2023-02-11T03:43:28.859Z,0.00
2023-02-11T03:44:29.759Z,0.00
2023-02-11T03:45:30.759Z,0.00
2023-02-11T03:46:31.165Z,0.00
2023-02-11T03:47:32.043Z,0.00
2023-02-11T03:48:32.929Z,0.00
2023-02-11T03:49:33.817Z,0.00
2023-02-11T03:50:34.707Z,0.00
2023-02-11T03:51:35.582Z,0.00
2023-02-11T03:52:36.464Z,0.00
2023-02-11T03:53:37.339Z,0.00
2023-02-11T03:54:38.238Z,0.00
2023-02-11T03:55:39.097Z,0.00
2023-02-11T03:56:40.042Z,0.00
2023-02-11T03:57:40.873Z,0.00
2023-02-11T03:58:41.762Z,0.00
2023-02-11T03:59:42.633Z,0.00
2023-02-11T04:00:43.526Z,0.00
2023-02-11T04:01:44.421Z,0.00
2023-02-11T04:02:45.352Z,0.00
2023-02-11T04:03:46.219Z,0.00
2023-02-11T04:04:47.137Z,0.00
2023-02-11T04:05:48.655Z,0.00
2023-02-11T04:06:48.709Z,0.00
2023-02-11T04:07:49.595Z,0.00
2023-02-11T04:08:50.474Z,0.00
2023-02-11T04:09:51.369Z,0.00
2023-02-11T04:10:52.237Z,0.00
2023-02-11T04:11:53.131Z,0.00
2023-02-11T04:12:54.010Z,0.00
2023-02-11T04:13:54.881Z,0.00
2023-02-11T04:14:55.773Z,0.00
2023-02-11T04:15:56.748Z,0.00
2023-02-11T04:16:57.651Z,0.00
2023-02-11T04:17:58.512Z,0.00
2023-02-11T04:18:59.397Z,0.00
2023-02-11T04:20:00.279Z,0.00
2023-02-11T04:21:01.167Z,0.00
2023-02-11T04:22:02.048Z,0.00
2023-02-11T04:23:02.927Z,0.00
2023-02-11T04:24:03.819Z,0.00
2023-02-11T04:25:04.716Z,0.00
2023-02-11T04:26:05.651Z,0.00
2023-02-11T04:27:06.482Z,0.00
2023-02-11T04:28:07.396Z,0.00
2023-02-11T04:29:08.240Z,0.00
2023-02-11T04:30:09.121Z,0.00
2023-02-11T04:31:10.052Z,0.00
2023-02-11T04:32:10.999Z,0.00
2023-02-11T04:33:11.434Z,0.00
2023-02-11T04:34:12.311Z,0.00
2023-02-11T04:35:13.195Z,0.00
2023-02-11T04:36:14.078Z,0.00
2023-02-11T04:37:14.961Z,0.00
2023-02-11T04:38:15.849Z,0.00
2023-02-11T04:39:16.778Z,0.00
2023-02-11T04:40:17.235Z,0.00
2023-02-11T04:41:18.128Z,0.00
2023-02-11T04:42:18.999Z,0.00
2023-02-11T04:43:19.864Z,0.00
2023-02-11T04:44:20.738Z,0.00
2023-02-11T04:45:21.639Z,0.00
2023-02-11T04:46:22.586Z,0.00
2023-02-11T04:47:23.468Z,0.00
2023-02-11T04:48:24.352Z,0.00
2023-02-11T04:49:25.234Z,0.00
2023-02-11T04:50:26.129Z,0.00
2023-02-11T04:51:26.994Z,0.00
2023-02-11T04:52:27.884Z,0.00
2023-02-11T04:53:28.771Z,0.00
2023-02-11T04:54:29.643Z,0.00
2023-02-11T04:55:30.549Z,0.00
2023-02-11T04:56:31.412Z,0.00
2023-02-11T04:57:32.298Z,0.00
2023-02-11T04:58:33.179Z,0.00
2023-02-11T04:59:34.060Z,0.00
2023-02-11T05:00:34.933Z,0.00
2023-02-11T05:01:35.884Z,0.00
2023-02-11T05:02:36.768Z,0.00
2023-02-11T05:03:37.663Z,0.00
2023-02-11T05:04:38.552Z,0.00
2023-02-11T05:05:39.437Z,0.00
2023-02-11T05:06:40.327Z,0.00
2023-02-11T05:07:41.216Z,0.00
2023-02-11T05:08:42.103Z,0.00
2023-02-11T05:09:42.986Z,0.00
2023-02-11T05:10:43.926Z,0.00
2023-02-11T05:11:44.752Z,0.00
2023-02-11T05:12:45.645Z,0.00
2023-02-11T05:13:46.536Z,0.00
2023-02-11T05:14:47.411Z,0.00
2023-02-11T05:15:48.611Z,0.00
2023-02-11T05:16:49.156Z,0.00
2023-02-11T05:17:50.058Z,0.00
2023-02-11T05:18:52.646Z,0.00
2023-02-11T05:19:51.566Z,0.00
2023-02-11T05:20:52.452Z,0.00
2023-02-11T05:22:02.211Z,0.00
2023-02-11T05:22:55.101Z,0.00
2023-02-11T05:23:54.991Z,0.00
2023-02-11T05:24:55.863Z,0.00
2023-02-11T05:25:56.770Z,0.00
2023-02-11T05:26:57.628Z,0.00
2023-02-11T05:27:58.595Z,0.00
2023-02-11T05:28:59.432Z,0.00
2023-02-11T05:30:00.324Z,0.00
2023-02-11T05:31:01.250Z,0.00
2023-02-11T05:32:02.125Z,0.00
2023-02-11T05:33:03.006Z,0.00
2023-02-11T05:34:03.900Z,0.00
2023-02-11T05:35:04.786Z,0.00
2023-02-11T05:36:05.649Z,0.00
2023-02-11T05:37:06.577Z,0.00
2023-02-11T05:38:07.436Z,0.00
2023-02-11T05:39:08.335Z,0.00
2023-02-11T05:40:09.208Z,0.00
2023-02-11T05:41:10.104Z,0.00
2023-02-11T05:42:10.966Z,0.00
2023-02-11T05:43:11.954Z,0.00
2023-02-11T05:44:12.830Z,0.00
2023-02-11T05:45:13.703Z,0.00
2023-02-11T05:46:14.672Z,0.00
2023-02-11T05:47:15.501Z,0.00
2023-02-11T05:48:16.400Z,0.00
2023-02-11T05:49:17.025Z,0.00
2023-02-11T05:50:17.909Z,0.00
2023-02-11T05:51:18.794Z,0.00
2023-02-11T05:52:19.677Z,0.00
2023-02-11T05:53:20.569Z,0.00
2023-02-11T05:54:21.446Z,0.00
2023-02-11T05:55:22.370Z,0.00
2023-02-11T05:56:23.236Z,0.00
2023-02-11T05:57:24.088Z,0.00
2023-02-11T05:58:24.982Z,0.00
2023-02-11T05:59:25.876Z,0.00
2023-02-11T06:00:26.747Z,0.00
2023-02-11T06:01:27.718Z,0.00
2023-02-11T06:02:28.587Z,0.00
2023-02-11T06:03:29.444Z,1.00
2023-02-11T06:04:30.284Z,0.00
2023-02-11T06:05:31.134Z,1.00
2023-02-11T06:06:32.081Z,0.00
2023-02-11T06:07:32.946Z,2.00
2023-02-11T06:08:33.745Z,1.00
2023-02-11T06:09:34.611Z,1.00
2023-02-11T06:10:35.422Z,1.00
2023-02-11T06:11:36.337Z,1.00
2023-02-11T06:12:37.161Z,0.00
2023-02-11T06:13:38.001Z,1.00
2023-02-11T06:14:38.836Z,1.00
2023-02-11T06:15:39.697Z,1.00
2023-02-11T06:16:40.495Z,2.00
2023-02-11T06:17:41.319Z,2.00
2023-02-11T06:18:42.153Z,3.00
2023-02-11T06:19:43.000Z,3.00
2023-02-11T06:20:43.855Z,5.00
2023-02-11T06:21:44.765Z,7.00
2023-02-11T06:22:45.536Z,6.00
2023-02-11T06:23:46.361Z,8.00
2023-02-11T06:25:00.913Z,9.00
2023-02-11T06:25:49.293Z,10.00
2023-02-11T06:26:48.498Z,9.00
2023-02-11T06:27:49.309Z,9.00
2023-02-11T06:28:50.137Z,11.00
2023-02-11T06:29:50.957Z,15.00
2023-02-11T06:30:51.932Z,16.00
2023-02-11T06:31:52.842Z,19.00
2023-02-11T06:32:53.717Z,15.00
2023-02-11T06:33:54.505Z,21.00
2023-02-11T06:34:55.337Z,23.00
2023-02-11T06:35:56.158Z,23.00
2023-02-11T06:36:56.990Z,23.00
2023-02-11T06:37:57.813Z,23.00
2023-02-11T06:38:58.684Z,23.00
2023-02-11T06:39:59.486Z,23.00
2023-02-11T06:41:00.336Z,26.00
2023-02-11T06:42:01.172Z,28.00
2023-02-11T06:43:01.993Z,26.00
2023-02-11T06:44:02.813Z,27.00
2023-02-11T06:45:03.692Z,29.00
2023-02-11T06:46:04.484Z,30.00
2023-02-11T06:47:05.309Z,38.00
2023-02-11T06:48:06.152Z,39.00
2023-02-11T06:49:06.986Z,38.00
2023-02-11T06:50:07.814Z,44.00
2023-02-11T06:51:08.644Z,47.00
2023-02-11T06:52:09.459Z,48.00
2023-02-11T06:53:10.409Z,47.00
2023-02-11T06:54:11.226Z,46.00
2023-02-11T06:55:12.065Z,45.00
2023-02-11T06:56:12.889Z,40.00
2023-02-11T06:57:13.741Z,41.00
2023-02-11T06:58:14.547Z,40.00
2023-02-11T06:59:15.385Z,40.00
2023-02-11T07:00:16.214Z,38.00
2023-02-11T07:01:17.058Z,41.00
2023-02-11T07:02:20.636Z,46.00
2023-02-11T07:03:18.769Z,41.00
2023-02-11T07:04:19.596Z,43.00
2023-02-11T07:05:20.397Z,48.00
2023-02-11T07:06:21.221Z,51.00
2023-02-11T07:07:22.075Z,56.00
2023-02-11T07:08:22.892Z,56.00
2023-02-11T07:09:23.742Z,60.00
2023-02-11T07:10:24.560Z,69.00
2023-02-11T07:11:25.388Z,68.00
2023-02-11T07:12:26.230Z,71.00
2023-02-11T07:13:27.038Z,69.00
2023-02-11T07:14:27.878Z,66.00
2023-02-11T07:15:28.717Z,72.00
2023-02-11T07:16:29.601Z,76.00
2023-02-11T07:17:30.439Z,79.00
2023-02-11T07:18:31.272Z,82.00
2023-02-11T07:19:32.123Z,91.00
2023-02-11T07:20:32.930Z,96.00
2023-02-11T07:21:33.752Z,97.00
2023-02-11T07:22:34.595Z,87.00
2023-02-11T07:23:35.423Z,104.00
2023-02-11T07:24:36.253Z,112.00
2023-02-11T07:25:37.092Z,98.00
2023-02-11T07:26:37.954Z,101.00
2023-02-11T07:27:38.755Z,112.00
2023-02-11T07:28:39.558Z,121.00
2023-02-11T07:29:40.433Z,126.00
2023-02-11T07:30:41.272Z,129.00
2023-02-11T07:31:42.264Z,139.00
2023-02-11T07:32:42.591Z,139.00
2023-02-11T07:33:43.433Z,163.00
2023-02-11T07:34:44.246Z,176.00
2023-02-11T07:35:45.068Z,183.00
2023-02-11T07:36:45.915Z,196.00
2023-02-11T07:37:46.735Z,202.00
2023-02-11T07:38:47.563Z,233.00
2023-02-11T07:39:48.398Z,226.00
2023-02-11T07:40:49.225Z,207.00
2023-02-11T07:41:50.068Z,195.00
2023-02-11T07:42:50.903Z,188.00
2023-02-11T07:43:51.710Z,167.00
2023-02-11T07:44:52.560Z,159.00
2023-02-11T07:45:53.388Z,146.00
2023-02-11T07:46:54.385Z,144.00
2023-02-11T07:47:55.173Z,149.00
2023-02-11T07:48:56.022Z,148.00
2023-02-11T07:49:56.900Z,145.00
2023-02-11T07:50:57.672Z,144.00
2023-02-11T07:51:58.492Z,144.00
2023-02-11T07:52:59.323Z,145.00
2023-02-11T07:54:00.277Z,146.00
2023-02-11T07:55:03.789Z,146.00
2023-02-11T07:56:01.999Z,140.00
2023-02-11T07:57:02.845Z,140.00
2023-02-11T07:58:03.688Z,146.00
2023-02-11T07:59:04.490Z,146.00
2023-02-11T08:00:05.324Z,146.00
2023-02-11T08:01:06.177Z,146.00
2023-02-11T08:02:07.054Z,150.00
2023-02-11T08:03:07.852Z,159.00
2023-02-11T08:04:08.662Z,164.00
2023-02-11T08:05:09.507Z,172.00
2023-02-11T08:06:10.319Z,171.00
2023-02-11T08:07:11.139Z,155.00
2023-02-11T08:08:11.971Z,137.00
2023-02-11T08:09:12.791Z,128.00
2023-02-11T08:10:13.620Z,121.00
2023-02-11T08:11:14.448Z,118.00
2023-02-11T08:12:15.278Z,114.00
2023-02-11T08:13:16.129Z,102.00
2023-02-11T08:14:16.961Z,116.00
2023-02-11T08:15:17.775Z,121.00
2023-02-11T08:16:18.634Z,120.00
2023-02-11T08:17:19.446Z,121.00
2023-02-11T08:18:20.265Z,128.00
2023-02-11T08:19:21.102Z,138.00
2023-02-11T08:20:21.949Z,140.00
2023-02-11T08:21:22.772Z,155.00
2023-02-11T08:22:23.601Z,164.00
2023-02-11T08:23:24.440Z,175.00
2023-02-11T08:24:25.267Z,184.00
2023-02-11T08:25:26.103Z,195.00
2023-02-11T08:26:26.919Z,195.00
2023-02-11T08:27:27.824Z,188.00
2023-02-11T08:28:28.758Z,189.00
2023-02-11T08:29:29.568Z,198.00
2023-02-11T08:30:30.393Z,215.00
2023-02-11T08:31:31.543Z,219.00
2023-02-11T08:32:31.862Z,222.00
2023-02-11T08:33:32.702Z,217.00
2023-02-11T08:34:33.538Z,206.00
2023-02-11T08:35:34.363Z,204.00
2023-02-11T08:36:35.194Z,207.00
2023-02-11T08:37:36.035Z,211.00
2023-02-11T08:38:36.866Z,209.00
2023-02-11T08:39:37.731Z,214.00
2023-02-11T08:40:38.544Z,227.00
2023-02-11T08:41:39.376Z,234.00
2023-02-11T08:42:40.205Z,243.00
2023-02-11T08:43:41.043Z,237.00
2023-02-11T08:44:41.876Z,243.00
2023-02-11T08:45:42.737Z,261.00
2023-02-11T08:46:43.570Z,278.00
2023-02-11T08:47:44.398Z,302.00
2023-02-11T08:48:45.219Z,311.00
2023-02-11T08:49:46.070Z,319.00
2023-02-11T08:50:46.892Z,326.00
2023-02-11T08:51:47.738Z,318.00
2023-02-11T08:52:48.542Z,305.00
2023-02-11T08:53:49.371Z,311.00
2023-02-11T08:54:50.210Z,319.00
2023-02-11T08:55:51.402Z,331.00
2023-02-11T08:56:51.847Z,334.00
2023-02-11T08:57:52.650Z,328.00
2023-02-11T08:58:53.508Z,319.00
2023-02-11T08:59:54.314Z,322.00
2023-02-11T09:00:55.155Z,323.00
2023-02-11T09:01:55.983Z,313.00
2023-02-11T09:02:56.784Z,295.00
2023-02-11T09:03:57.608Z,279.00
2023-02-11T09:04:58.455Z,285.00
2023-02-11T09:05:59.288Z,291.00
2023-02-11T09:07:00.118Z,295.00
2023-02-11T09:08:00.939Z,298.00
2023-02-11T09:09:01.772Z,293.00
2023-02-11T09:10:02.608Z,290.00
2023-02-11T09:11:03.440Z,279.00
2023-02-11T09:12:04.268Z,273.00
2023-02-11T09:13:05.095Z,270.00
2023-02-11T09:14:05.936Z,277.00
2023-02-11T09:15:06.764Z,282.00
2023-02-11T09:16:07.597Z,281.00
2023-02-11T09:17:08.475Z,282.00
2023-02-11T09:18:09.269Z,280.00
2023-02-11T09:19:10.083Z,285.00
2023-02-11T09:20:11.047Z,294.00
2023-02-11T09:21:11.820Z,295.00
2023-02-11T09:22:12.647Z,291.00
2023-02-11T09:23:13.481Z,288.00
2023-02-11T09:24:14.310Z,295.00
2023-02-11T09:25:15.151Z,316.00
2023-02-11T09:26:15.980Z,337.00
2023-02-11T09:27:16.831Z,348.00
2023-02-11T09:28:17.672Z,339.00
2023-02-11T09:29:18.518Z,341.00
2023-02-11T09:30:19.356Z,356.00
2023-02-11T09:31:20.318Z,351.00
2023-02-11T09:32:21.136Z,428.00
2023-02-11T09:33:21.969Z,387.00
2023-02-11T09:34:22.802Z,380.00
2023-02-11T09:35:23.646Z,437.00
2023-02-11T09:36:24.467Z,297.00
2023-02-11T09:37:25.300Z,852.00
2023-02-11T09:38:26.131Z,689.00
2023-02-11T09:39:26.962Z,700.00
2023-02-11T09:40:27.801Z,837.00
2023-02-11T09:41:28.631Z,440.00
2023-02-11T09:42:29.456Z,809.00
2023-02-11T09:43:30.278Z,448.00
2023-02-11T09:44:31.133Z,941.00
2023-02-11T09:45:31.953Z,804.00
2023-02-11T09:46:32.860Z,546.00
2023-02-11T09:47:33.681Z,632.00
2023-02-11T09:48:34.513Z,520.00
2023-02-11T09:49:35.342Z,402.00
2023-02-11T09:50:36.259Z,524.00
2023-02-11T09:51:37.036Z,621.00
2023-02-11T09:52:37.870Z,466.00
2023-02-11T09:53:38.706Z,563.00
2023-02-11T09:54:39.536Z,825.00
2023-02-11T09:55:40.385Z,584.00
2023-02-11T09:56:41.203Z,466.00
2023-02-11T09:57:42.036Z,810.00
2023-02-11T09:58:42.868Z,688.00
2023-02-11T09:59:43.739Z,830.00
2023-02-11T10:00:44.533Z,798.00
2023-02-11T10:01:45.453Z,816.00
2023-02-11T10:02:46.244Z,806.00
2023-02-11T10:03:47.065Z,789.00
2023-02-11T10:04:47.900Z,766.00
2023-02-11T10:05:48.817Z,746.00
2023-02-11T10:06:49.644Z,694.00
2023-02-11T10:07:50.472Z,650.00
2023-02-11T10:08:51.308Z,654.00
2023-02-11T10:09:52.133Z,637.00
2023-02-11T10:10:53.479Z,636.00
2023-02-11T10:11:53.945Z,638.00
2023-02-11T10:12:54.782Z,629.00
2023-02-11T10:13:55.651Z,665.00
2023-02-11T10:14:56.482Z,686.00
2023-02-11T10:15:57.376Z,671.00
2023-02-11T10:16:58.159Z,627.00
2023-02-11T10:17:59.001Z,589.00
2023-02-11T10:18:59.814Z,570.00
2023-02-11T10:20:00.728Z,554.00
2023-02-11T10:21:01.533Z,572.00
2023-02-11T10:22:02.336Z,582.00
2023-02-11T10:23:03.178Z,585.00
2023-02-11T10:24:04.033Z,577.00
2023-02-11T10:25:04.829Z,563.00
2023-02-11T10:26:05.659Z,538.00
2023-02-11T10:27:06.515Z,510.00
2023-02-11T10:28:07.342Z,513.00
2023-02-11T10:29:08.158Z,545.00
2023-02-11T10:30:08.999Z,600.00
2023-02-11T10:31:09.955Z,598.00
2023-02-11T10:32:10.409Z,554.00
2023-02-11T10:33:11.208Z,508.00
2023-02-11T10:34:12.027Z,487.00
2023-02-11T10:35:12.848Z,478.00
2023-02-11T10:36:13.692Z,483.00
2023-02-11T10:37:14.512Z,487.00
2023-02-11T10:38:15.344Z,485.00
2023-02-11T10:39:16.169Z,476.00
2023-02-11T10:40:16.997Z,484.00
2023-02-11T10:41:17.845Z,484.00
2023-02-11T10:42:18.672Z,488.00
2023-02-11T10:43:19.497Z,474.00
2023-02-11T10:44:20.321Z,460.00
2023-02-11T10:45:21.175Z,454.00
2023-02-11T10:46:22.080Z,452.00
2023-02-11T10:47:22.878Z,448.00
2023-02-11T10:48:23.692Z,448.00
2023-02-11T10:49:24.523Z,457.00
2023-02-11T10:50:25.341Z,494.00
2023-02-11T10:51:26.186Z,536.00
2023-02-11T10:52:27.040Z,577.00
2023-02-11T10:53:27.847Z,578.00
2023-02-11T10:54:28.676Z,539.00
2023-02-11T10:55:29.500Z,510.00
2023-02-11T10:56:30.355Z,485.00
2023-02-11T10:57:31.157Z,457.00
2023-02-11T10:58:32.011Z,441.00
2023-02-11T10:59:32.817Z,425.00
2023-02-11T11:00:33.677Z,390.00
2023-02-11T11:01:34.500Z,371.00
2023-02-11T11:02:35.323Z,377.00
2023-02-11T11:03:36.147Z,409.00
2023-02-11T11:04:37.068Z,439.00
2023-02-11T11:05:37.881Z,453.00
2023-02-11T11:06:38.702Z,454.00
2023-02-11T11:07:39.530Z,452.00
2023-02-11T11:08:40.352Z,466.00
2023-02-11T11:09:41.182Z,464.00
2023-02-11T11:10:42.011Z,530.00
2023-02-11T11:11:42.853Z,543.00
2023-02-11T11:12:43.727Z,553.00
2023-02-11T11:13:44.536Z,559.00
2023-02-11T11:14:45.371Z,552.00
2023-02-11T11:15:46.259Z,545.00
2023-02-11T11:16:47.088Z,552.00
2023-02-11T11:17:47.919Z,574.00
2023-02-11T11:18:48.751Z,579.00
2023-02-11T11:19:49.567Z,578.00
2023-02-11T11:20:50.690Z,575.00
2023-02-11T11:21:51.147Z,577.00
2023-02-11T11:22:52.007Z,589.00
2023-02-11T11:23:52.824Z,610.00
2023-02-11T11:24:53.660Z,637.00
2023-02-11T11:25:54.516Z,661.00
2023-02-11T11:26:55.345Z,669.00
2023-02-11T11:27:56.206Z,681.00
2023-02-11T11:28:57.010Z,679.00
2023-02-11T11:29:57.831Z,687.00
2023-02-11T11:30:58.803Z,702.00
2023-02-11T11:31:59.248Z,453.00
2023-02-11T11:33:00.049Z,1200.00
2023-02-11T11:34:00.882Z,773.00
2023-02-11T11:35:01.695Z,716.00
2023-02-11T11:36:02.514Z,639.00
2023-02-11T11:37:03.368Z,589.00
2023-02-11T11:38:04.219Z,565.00
2023-02-11T11:39:05.044Z,568.00
2023-02-11T11:40:05.871Z,583.00
2023-02-11T11:41:06.694Z,564.00
2023-02-11T11:42:07.567Z,546.00
2023-02-11T11:43:08.383Z,548.00
2023-02-11T11:44:09.212Z,539.00
2023-02-11T11:45:10.031Z,510.00
2023-02-11T11:46:10.914Z,488.00
2023-02-11T11:47:11.705Z,497.00
2023-02-11T11:48:12.535Z,487.00
2023-02-11T11:49:13.368Z,479.00
2023-02-11T11:50:14.185Z,477.00
2023-02-11T11:51:15.011Z,476.00
2023-02-11T11:52:15.839Z,478.00
2023-02-11T11:53:16.672Z,479.00
2023-02-11T11:54:17.499Z,470.00
2023-02-11T11:55:18.337Z,484.00
2023-02-11T11:56:19.157Z,509.00
2023-02-11T11:57:19.991Z,508.00
2023-02-11T11:58:20.821Z,503.00
2023-02-11T11:59:21.664Z,485.00
2023-02-11T12:00:22.488Z,467.00
2023-02-11T12:01:23.386Z,451.00
2023-02-11T12:02:24.307Z,438.00
2023-02-11T12:03:25.172Z,444.00
2023-02-11T12:04:25.948Z,442.00
2023-02-11T12:05:26.790Z,441.00
2023-02-11T12:06:27.619Z,437.00
2023-02-11T12:07:28.443Z,430.00
2023-02-11T12:08:29.278Z,431.00
2023-02-11T12:09:30.113Z,436.00
2023-02-11T12:10:30.948Z,442.00
2023-02-11T12:11:31.785Z,448.00
2023-02-11T12:12:32.635Z,452.00
2023-02-11T12:13:33.436Z,464.00
2023-02-11T12:14:34.271Z,462.00
2023-02-11T12:15:35.099Z,467.00
2023-02-11T12:16:36.018Z,471.00
2023-02-11T12:17:36.835Z,469.00
2023-02-11T12:18:37.664Z,456.00
2023-02-11T12:19:38.505Z,449.00
2023-02-11T12:20:39.330Z,433.00
2023-02-11T12:21:40.172Z,420.00
2023-02-11T12:22:41.043Z,406.00
2023-02-11T12:23:41.852Z,393.00
2023-02-11T12:24:42.673Z,380.00
2023-02-11T12:25:43.504Z,375.00
2023-02-11T12:26:44.329Z,377.00
2023-02-11T12:27:45.298Z,382.00
2023-02-11T12:28:46.063Z,390.00
2023-02-11T12:29:46.898Z,406.00
2023-02-11T12:30:47.867Z,424.00
2023-02-11T12:31:48.817Z,438.00
2023-02-11T12:32:49.617Z,442.00
2023-02-11T12:33:50.441Z,434.00
2023-02-11T12:34:51.270Z,418.00
2023-02-11T12:35:52.116Z,383.00
2023-02-11T12:36:52.949Z,341.00
2023-02-11T12:37:53.820Z,300.00
2023-02-11T12:38:54.663Z,264.00
2023-02-11T12:39:55.470Z,243.00
2023-02-11T12:40:56.291Z,224.00
2023-02-11T12:41:57.118Z,225.00
2023-02-11T12:42:58.988Z,223.00
2023-02-11T12:43:58.520Z,228.00
2023-02-11T12:44:59.353Z,230.00
2023-02-11T12:46:00.320Z,239.00
2023-02-11T12:47:01.156Z,250.00
2023-02-11T12:48:01.969Z,265.00
2023-02-11T12:49:02.792Z,284.00
2023-02-11T12:50:03.630Z,296.00
2023-02-11T12:51:04.443Z,313.00
2023-02-11T12:52:05.273Z,324.00
2023-02-11T12:53:06.102Z,332.00
2023-02-11T12:54:07.035Z,327.00
2023-02-11T12:55:07.785Z,316.00
2023-02-11T12:56:08.616Z,314.00
2023-02-11T12:57:09.437Z,307.00
2023-02-11T12:58:10.278Z,300.00
2023-02-11T12:59:13.906Z,293.00
2023-02-11T13:00:11.644Z,283.00
2023-02-11T13:01:12.464Z,267.00
2023-02-11T13:02:13.400Z,255.00
2023-02-11T13:03:14.198Z,249.00
2023-02-11T13:04:15.024Z,242.00
2023-02-11T13:05:15.864Z,246.00